Time;durP1;ratioP1;P1;durP2;ratioP2;P2;SDS_P1;SDS_P2;PMS_P1;PMS_P2;Temp;Humidity;BMP_temperature;BMP_pressure;BME280_temperature;BME280_humidity;BME280_pressure;Samples;Min_cycle;Max_cycle;Signal;HPM_P1;HPM_P2
2023/01/02 00:00:04;;;;;;;9.73;2.63;;;;;;;;;;506901;29;1575;-68
2023/01/02 00:00:20;;;;;;;11.07;2.70;;;;;;;;;;505945;29;1382;-69
2023/01/02 00:00:36;;;;;;;9.23;2.50;;;;;;;;;;505883;29;1166;-66
2023/01/02 00:00:51;;;;;;;8.80;2.47;;;;;;;;;;509625;28;1376;-68
2023/01/02 00:01:07;;;;;;;9.50;2.70;;;;;;;;;;510618;28;1414;-68
2023/01/02 00:01:23;;;;;;;9.60;2.65;;;;;;;;;;511051;28;1829;-67
2023/01/02 00:01:39;;;;;;;8.67;2.50;;;;;;;;;;512664;28;1301;-68
2023/01/02 00:01:54;;;;;;;8.45;2.63;;;;;;;;;;512266;28;1575;-68
2023/01/02 00:02:10;;;;;;;8.27;2.60;;;;;;;;;;511958;28;1156;-68
2023/01/02 00:02:26;;;;;;;9.27;2.37;;;;;;;;;;513094;28;1346;-68
2023/01/02 00:02:41;;;;;;;9.75;2.22;;;;;;;;;;512351;28;1077;-68
2023/01/02 00:02:56;;;;;;;7.73;2.30;;;;;;;;;;508392;28;1684;-70
2023/01/02 00:03:12;;;;;;;8.57;2.40;;;;;;;;;;511598;28;1375;-68
2023/01/02 00:03:28;;;;;;;9.98;2.40;;;;;;;;;;512709;28;1344;-69
2023/01/02 00:03:44;;;;;;;9.13;2.33;;;;;;;;;;511339;28;1376;-68
2023/01/02 00:03:59;;;;;;;9.20;2.40;;;;;;;;;;512628;28;1239;-68
2023/01/02 00:04:14;;;;;;;10.98;2.58;;;;;;;;;;511559;28;1231;-67
2023/01/02 00:04:29;;;;;;;11.07;2.70;;;;;;;;;;510908;28;1667;-68
2023/01/02 00:04:45;;;;;;;9.37;2.70;;;;;;;;;;505528;28;1339;-67
2023/01/02 00:05:00;;;;;;;9.00;2.58;;;;;;;;;;509165;28;1502;-68
2023/01/02 00:05:15;;;;;;;8.87;2.50;;;;;;;;;;508501;28;1376;-68
2023/01/02 00:05:31;;;;;;;8.13;2.60;;;;;;;;;;506348;29;1145;-68
2023/01/02 00:05:46;;;;;;;7.93;2.57;;;;;;;;;;508824;28;1195;-68
2023/01/02 00:06:03;;;;;;;7.40;2.33;;;;;;;;;;509167;28;1571;-68
2023/01/02 00:06:18;;;;;;;8.45;2.60;;;;;;;;;;508815;28;1098;-68
2023/01/02 00:06:35;;;;;;;9.57;2.50;;;;;;;;;;507321;28;1344;-69
2023/01/02 00:06:50;;;;;;;10.02;2.38;;;;;;;;;;511457;28;1494;-68
2023/01/02 00:07:05;;;;;;;8.85;2.35;;;;;;;;;;510747;28;1438;-69
2023/01/02 00:07:20;;;;;;;7.93;2.30;;;;;;;;;;510469;28;1379;-68
2023/01/02 00:07:36;;;;;;;9.80;2.60;;;;;;;;;;510970;28;1391;-66
2023/01/02 00:07:51;;;;;;;10.20;2.70;;;;;;;;;;508306;28;1617;-67
2023/01/02 00:08:06;;;;;;;10.40;2.63;;;;;;;;;;508814;28;1509;-68
2023/01/02 00:08:22;;;;;;;11.10;2.60;;;;;;;;;;508954;28;1249;-68
2023/01/02 00:08:37;;;;;;;9.70;2.58;;;;;;;;;;509360;28;1439;-68
2023/01/02 00:08:52;;;;;;;7.60;2.40;;;;;;;;;;508343;28;1170;-67
2023/01/02 00:09:08;;;;;;;7.63;2.40;;;;;;;;;;510413;28;1279;-67
2023/01/02 00:09:24;;;;;;;9.00;2.63;;;;;;;;;;509369;28;1892;-68
2023/01/02 00:09:39;;;;;;;9.50;2.53;;;;;;;;;;509456;28;1320;-67
2023/01/02 00:09:54;;;;;;;9.07;2.50;;;;;;;;;;508503;28;1228;-68
2023/01/02 00:10:10;;;;;;;9.00;2.80;;;;;;;;;;506934;28;1237;-67
2023/01/02 00:10:25;;;;;;;8.60;2.65;;;;;;;;;;509086;28;1333;-68
2023/01/02 00:10:40;;;;;;;7.40;2.57;;;;;;;;;;511123;28;1497;-69
2023/01/02 00:10:56;;;;;;;8.37;2.53;;;;;;;;;;510671;28;1730;-69
2023/01/02 00:11:11;;;;;;;9.27;2.38;;;;;;;;;;511042;28;2028;-70
2023/01/02 00:11:27;;;;;;;9.87;2.40;;;;;;;;;;511128;28;1159;-68
2023/01/02 00:11:42;;;;;;;9.00;2.50;;;;;;;;;;511873;28;1309;-67
2023/01/02 00:11:57;;;;;;;7.33;2.40;;;;;;;;;;513850;28;1918;-68
2023/01/02 00:12:12;;;;;;;8.63;2.33;;;;;;;;;;513106;28;1410;-67
2023/01/02 00:12:28;;;;;;;9.03;2.40;;;;;;;;;;511200;28;1379;-68
2023/01/02 00:12:43;;;;;;;9.43;2.50;;;;;;;;;;507469;28;1491;-68
2023/01/02 00:12:58;;;;;;;11.87;2.70;;;;;;;;;;507915;28;1284;-70
2023/01/02 00:13:14;;;;;;;10.57;2.70;;;;;;;;;;509143;28;1337;-67
2023/01/02 00:13:29;;;;;;;9.48;2.60;;;;;;;;;;508936;28;1396;-68
2023/01/02 00:13:44;;;;;;;9.87;2.70;;;;;;;;;;508872;28;1384;-68
2023/01/02 00:14:00;;;;;;;8.30;2.60;;;;;;;;;;509094;28;1392;-70
2023/01/02 00:14:15;;;;;;;7.43;2.42;;;;;;;;;;509186;28;1910;-68
2023/01/02 00:14:31;;;;;;;6.83;2.33;;;;;;;;;;508614;28;1284;-68
2023/01/02 00:14:46;;;;;;;9.15;2.50;;;;;;;;;;508785;28;1349;-68
2023/01/02 00:15:02;;;;;;;9.33;2.60;;;;;;;;;;510780;28;1467;-69
2023/01/02 00:15:17;;;;;;;8.60;2.38;;;;;;;;;;509983;28;1476;-67
2023/01/02 00:15:33;;;;;;;8.57;2.47;;;;;;;;;;510980;28;1401;-68
2023/01/02 00:15:48;;;;;;;9.00;2.60;;;;;;;;;;508573;28;1974;-68
2023/01/02 00:16:03;;;;;;;8.00;2.40;;;;;;;;;;508078;28;1411;-68
2023/01/02 00:16:19;;;;;;;6.53;2.27;;;;;;;;;;508474;28;1303;-68
2023/01/02 00:16:34;;;;;;;7.40;2.50;;;;;;;;;;505529;29;1212;-67
2023/01/02 00:16:50;;;;;;;7.70;2.67;;;;;;;;;;507403;28;1536;-69
2023/01/02 00:17:05;;;;;;;8.82;2.50;;;;;;;;;;509461;28;1372;-68
2023/01/02 00:17:20;;;;;;;7.53;2.47;;;;;;;;;;511587;28;1375;-69
2023/01/02 00:17:36;;;;;;;7.23;2.57;;;;;;;;;;510973;28;2152;-68
2023/01/02 00:17:51;;;;;;;8.77;2.78;;;;;;;;;;510050;28;1165;-68
2023/01/02 00:18:06;;;;;;;9.10;2.73;;;;;;;;;;509913;28;1355;-69
2023/01/02 00:18:22;;;;;;;8.40;2.50;;;;;;;;;;507489;29;1400;-68
2023/01/02 00:18:37;;;;;;;9.05;2.50;;;;;;;;;;507449;29;1345;-68
2023/01/02 00:18:52;;;;;;;10.03;2.53;;;;;;;;;;508659;28;1261;-70
2023/01/02 00:19:08;;;;;;;8.87;2.50;;;;;;;;;;505977;29;2022;-68
2023/01/02 00:19:23;;;;;;;8.73;2.40;;;;;;;;;;507879;29;1477;-68
2023/01/02 00:19:38;;;;;;;8.13;2.45;;;;;;;;;;506595;29;1183;-71
2023/01/02 00:19:55;;;;;;;6.60;2.37;;;;;;;;;;509555;28;1424;-68
2023/01/02 00:20:10;;;;;;;7.18;2.30;;;;;;;;;;510505;28;1336;-68
2023/01/02 00:20:25;;;;;;;8.33;2.50;;;;;;;;;;511466;28;1193;-68
2023/01/02 00:20:41;;;;;;;8.77;2.27;;;;;;;;;;511052;28;1716;-67
2023/01/02 00:21:01;;;;;;;8.43;2.20;;;;;;;;;;510892;28;1248;-68
2023/01/02 00:21:16;;;;;;;7.72;2.50;;;;;;;;;;511076;28;1366;-69
2023/01/02 00:21:32;;;;;;;7.77;2.47;;;;;;;;;;513535;28;1429;-68
2023/01/02 00:21:47;;;;;;;8.77;2.50;;;;;;;;;;510086;28;1272;-69
2023/01/02 00:22:02;;;;;;;9.17;2.33;;;;;;;;;;508275;28;1351;-69
2023/01/02 00:22:17;;;;;;;9.50;2.20;;;;;;;;;;509454;28;1767;-68
2023/01/02 00:22:33;;;;;;;8.73;2.30;;;;;;;;;;507161;28;1320;-69
2023/01/02 00:22:48;;;;;;;7.65;2.40;;;;;;;;;;507485;28;1410;-68
2023/01/02 00:23:03;;;;;;;6.93;2.30;;;;;;;;;;505084;29;1268;-68
2023/01/02 00:23:19;;;;;;;6.93;2.30;;;;;;;;;;505762;29;1342;-68
2023/01/02 00:23:34;;;;;;;8.45;2.60;;;;;;;;;;506749;29;1492;-68
2023/01/02 00:23:50;;;;;;;8.10;2.53;;;;;;;;;;504992;29;1746;-69
2023/01/02 00:24:06;;;;;;;8.73;2.65;;;;;;;;;;507187;29;1404;-69
2023/01/02 00:24:22;;;;;;;8.35;2.55;;;;;;;;;;507063;29;1218;-68
2023/01/02 00:24:38;;;;;;;5.85;2.20;;;;;;;;;;507188;28;1403;-70
2023/01/02 00:24:54;;;;;;;7.75;2.30;;;;;;;;;;506481;29;1201;-69
2023/01/02 00:25:10;;;;;;;9.70;2.53;;;;;;;;;;507552;29;1556;-69
2023/01/02 00:25:26;;;;;;;8.68;2.50;;;;;;;;;;506955;29;2051;-69
2023/01/02 00:25:42;;;;;;;8.05;2.40;;;;;;;;;;507435;29;1168;-69
2023/01/02 00:25:58;;;;;;;8.15;2.40;;;;;;;;;;505919;29;1277;-70
2023/01/02 00:26:14;;;;;;;7.78;2.30;;;;;;;;;;506648;29;1086;-69
2023/01/02 00:26:30;;;;;;;8.57;2.40;;;;;;;;;;509810;28;1599;-69
2023/01/02 00:26:46;;;;;;;9.32;2.58;;;;;;;;;;512077;28;1391;-69
2023/01/02 00:27:01;;;;;;;8.07;2.40;;;;;;;;;;511991;28;1442;-69
2023/01/02 00:27:17;;;;;;;8.43;2.27;;;;;;;;;;513324;28;1952;-69
2023/01/02 00:27:33;;;;;;;9.68;2.50;;;;;;;;;;512336;28;1211;-68
2023/01/02 00:27:48;;;;;;;10.25;2.60;;;;;;;;;;512089;28;1138;-69
2023/01/02 00:28:05;;;;;;;13.23;2.53;;;;;;;;;;512052;28;1057;-68
2023/01/02 00:28:20;;;;;;;15.02;2.58;;;;;;;;;;509500;28;1455;-69
2023/01/02 00:28:37;;;;;;;14.13;2.60;;;;;;;;;;512354;28;1310;-68
2023/01/02 00:28:53;;;;;;;11.80;2.50;;;;;;;;;;513155;28;1578;-68
2023/01/02 00:29:09;;;;;;;10.07;2.60;;;;;;;;;;512503;28;1112;-68
2023/01/02 00:29:25;;;;;;;9.55;2.45;;;;;;;;;;511589;28;1186;-68
2023/01/02 00:29:41;;;;;;;8.43;2.30;;;;;;;;;;512824;28;1363;-71
2023/01/02 00:29:57;;;;;;;8.63;2.70;;;;;;;;;;513372;28;1355;-69
2023/01/02 00:30:13;;;;;;;8.68;2.85;;;;;;;;;;511505;28;1458;-69
2023/01/02 00:30:29;;;;;;;8.52;2.70;;;;;;;;;;511803;28;1723;-69
2023/01/02 00:30:44;;;;;;;8.95;2.60;;;;;;;;;;513049;28;1300;-69
2023/01/02 00:31:12;;;;;;;9.37;2.63;;;;;;;;;;512903;28;1357;-69
2023/01/02 00:31:28;;;;;;;9.65;2.47;;;;;;;;;;513096;28;1411;-68
2023/01/02 00:31:44;;;;;;;9.48;2.40;;;;;;;;;;513038;28;1089;-68
2023/01/02 00:32:00;;;;;;;8.18;2.50;;;;;;;;;;512125;28;1922;-69
2023/01/02 00:32:16;;;;;;;8.20;2.50;;;;;;;;;;513154;28;1414;-68
2023/01/02 00:32:32;;;;;;;8.05;2.47;;;;;;;;;;512463;28;1287;-68
2023/01/02 00:32:47;;;;;;;8.23;2.47;;;;;;;;;;512678;28;1347;-68
2023/01/02 00:33:04;;;;;;;8.20;2.38;;;;;;;;;;511289;28;1375;-68
2023/01/02 00:33:20;;;;;;;9.23;2.45;;;;;;;;;;511132;28;1462;-68
2023/01/02 00:33:36;;;;;;;9.63;2.50;;;;;;;;;;510356;28;1154;-67
2023/01/02 00:33:51;;;;;;;8.98;2.40;;;;;;;;;;510429;28;1265;-68
2023/01/02 00:34:07;;;;;;;8.07;2.60;;;;;;;;;;511303;28;1434;-69
2023/01/02 00:34:23;;;;;;;9.10;2.60;;;;;;;;;;510655;28;1237;-69
2023/01/02 00:34:38;;;;;;;9.60;2.53;;;;;;;;;;510841;28;1309;-70
2023/01/02 00:34:54;;;;;;;7.93;2.30;;;;;;;;;;507832;28;1229;-69
2023/01/02 00:35:09;;;;;;;7.60;2.42;;;;;;;;;;510336;28;1180;-68
2023/01/02 00:35:25;;;;;;;6.70;2.43;;;;;;;;;;510846;28;2315;-69
2023/01/02 00:35:40;;;;;;;7.43;2.33;;;;;;;;;;512276;28;1340;-68
2023/01/02 00:35:55;;;;;;;8.00;2.50;;;;;;;;;;512831;28;1458;-69
2023/01/02 00:36:11;;;;;;;8.83;2.50;;;;;;;;;;511230;28;1396;-68
2023/01/02 00:36:27;;;;;;;9.35;2.40;;;;;;;;;;513273;28;1340;-68
2023/01/02 00:36:42;;;;;;;8.18;2.45;;;;;;;;;;510972;28;1798;-68
2023/01/02 00:36:57;;;;;;;8.00;2.50;;;;;;;;;;510503;28;2188;-68
2023/01/02 00:37:13;;;;;;;8.53;2.40;;;;;;;;;;510973;28;1403;-69
2023/01/02 00:37:28;;;;;;;8.77;2.40;;;;;;;;;;510106;28;1205;-70
2023/01/02 00:37:43;;;;;;;8.43;2.60;;;;;;;;;;508569;28;1589;-71
2023/01/02 00:37:58;;;;;;;9.63;2.63;;;;;;;;;;510979;28;1426;-68
2023/01/02 00:38:14;;;;;;;9.57;2.60;;;;;;;;;;511351;28;1291;-68
2023/01/02 00:38:29;;;;;;;8.90;2.70;;;;;;;;;;510253;28;1557;-67
2023/01/02 00:38:44;;;;;;;9.43;2.60;;;;;;;;;;509598;28;1145;-68
2023/01/02 00:38:59;;;;;;;10.60;2.63;;;;;;;;;;510672;28;1387;-69
2023/01/02 00:39:15;;;;;;;10.73;2.90;;;;;;;;;;511206;28;1367;-69
2023/01/02 00:39:30;;;;;;;10.45;2.80;;;;;;;;;;510111;28;1516;-69
2023/01/02 00:39:45;;;;;;;8.37;2.60;;;;;;;;;;511380;28;1350;-69
2023/01/02 00:40:00;;;;;;;7.07;2.50;;;;;;;;;;510160;28;1289;-68
2023/01/02 00:40:16;;;;;;;9.73;2.50;;;;;;;;;;510398;28;2098;-69
2023/01/02 00:40:31;;;;;;;9.27;2.42;;;;;;;;;;508634;28;1388;-69
2023/01/02 00:40:47;;;;;;;8.03;2.60;;;;;;;;;;510708;28;1372;-70
2023/01/02 00:41:02;;;;;;;7.97;2.53;;;;;;;;;;511060;28;1181;-68
2023/01/02 00:41:17;;;;;;;8.98;2.40;;;;;;;;;;509313;28;1355;-71
2023/01/02 00:41:33;;;;;;;9.37;2.70;;;;;;;;;;511117;28;1340;-70
2023/01/02 00:41:48;;;;;;;8.48;2.67;;;;;;;;;;510302;28;1706;-69
2023/01/02 00:42:03;;;;;;;9.27;2.50;;;;;;;;;;511269;28;1269;-70
2023/01/02 00:42:19;;;;;;;11.03;2.63;;;;;;;;;;510854;28;1105;-69
2023/01/02 00:42:34;;;;;;;11.18;2.60;;;;;;;;;;510010;28;1228;-70
2023/01/02 00:42:49;;;;;;;10.47;2.50;;;;;;;;;;508662;28;1426;-68
2023/01/02 00:43:05;;;;;;;8.90;2.43;;;;;;;;;;507914;28;1345;-70
2023/01/02 00:43:20;;;;;;;7.72;2.45;;;;;;;;;;507418;29;1714;-69
2023/01/02 00:43:35;;;;;;;7.57;2.30;;;;;;;;;;511020;28;1217;-70
2023/01/02 00:43:51;;;;;;;7.97;2.20;;;;;;;;;;509803;28;1219;-68
2023/01/02 00:44:06;;;;;;;8.02;2.38;;;;;;;;;;508556;28;1193;-68
2023/01/02 00:44:21;;;;;;;8.47;2.40;;;;;;;;;;509231;28;1466;-69
2023/01/02 00:44:36;;;;;;;9.97;2.40;;;;;;;;;;508981;28;1309;-68
2023/01/02 00:44:52;;;;;;;9.67;2.50;;;;;;;;;;508812;28;1312;-68
2023/01/02 00:45:09;;;;;;;11.02;2.80;;;;;;;;;;508267;28;1443;-68
2023/01/02 00:45:24;;;;;;;11.38;2.80;;;;;;;;;;506942;29;1380;-68
2023/01/02 00:45:41;;;;;;;9.63;2.60;;;;;;;;;;506309;29;1201;-68
2023/01/02 00:45:56;;;;;;;8.55;2.60;;;;;;;;;;506818;29;1135;-67
2023/01/02 00:46:11;;;;;;;8.57;2.60;;;;;;;;;;506234;29;1250;-68
2023/01/02 00:46:27;;;;;;;8.20;2.57;;;;;;;;;;506314;29;1432;-68
2023/01/02 00:46:42;;;;;;;7.30;2.33;;;;;;;;;;507532;29;1908;-69
2023/01/02 00:46:57;;;;;;;9.00;2.40;;;;;;;;;;511032;28;1332;-69
2023/01/02 00:47:12;;;;;;;10.10;2.80;;;;;;;;;;511360;28;1091;-68
2023/01/02 00:47:28;;;;;;;8.80;2.60;;;;;;;;;;511960;28;1089;-69
2023/01/02 00:47:43;;;;;;;10.77;2.47;;;;;;;;;;512654;28;1316;-68
2023/01/02 00:47:58;;;;;;;10.47;2.30;;;;;;;;;;513247;28;1504;-69
2023/01/02 00:48:13;;;;;;;8.53;2.30;;;;;;;;;;512815;28;1673;-69
2023/01/02 00:48:29;;;;;;;8.93;2.30;;;;;;;;;;510807;28;1383;-69
2023/01/02 00:48:44;;;;;;;8.65;2.33;;;;;;;;;;510199;28;1297;-69
2023/01/02 00:48:59;;;;;;;9.97;2.30;;;;;;;;;;506408;29;1465;-68
2023/01/02 00:49:14;;;;;;;9.27;2.37;;;;;;;;;;506303;29;1249;-70
2023/01/02 00:49:30;;;;;;;7.67;2.33;;;;;;;;;;507097;29;1484;-68
2023/01/02 00:49:45;;;;;;;7.97;2.33;;;;;;;;;;507198;29;1570;-69
2023/01/02 00:50:00;;;;;;;7.67;2.50;;;;;;;;;;505459;29;1410;-68
2023/01/02 00:50:16;;;;;;;8.47;2.40;;;;;;;;;;507364;29;1261;-68
2023/01/02 00:50:31;;;;;;;7.15;2.20;;;;;;;;;;509235;28;1388;-70
2023/01/02 00:50:48;;;;;;;7.70;2.20;;;;;;;;;;511227;28;1177;-69
2023/01/02 00:51:03;;;;;;;10.27;2.43;;;;;;;;;;508837;28;1280;-70
2023/01/02 00:51:18;;;;;;;9.97;2.67;;;;;;;;;;508672;28;1407;-68
2023/01/02 00:51:34;;;;;;;8.77;2.60;;;;;;;;;;508939;28;2260;-68
2023/01/02 00:51:49;;;;;;;7.47;2.53;;;;;;;;;;507959;28;1181;-69
2023/01/02 00:52:04;;;;;;;7.30;2.50;;;;;;;;;;508592;28;1929;-69
2023/01/02 00:52:19;;;;;;;7.53;2.50;;;;;;;;;;508042;28;1297;-69
2023/01/02 00:52:35;;;;;;;8.50;2.60;;;;;;;;;;508079;28;1271;-68
2023/01/02 00:52:50;;;;;;;8.93;2.60;;;;;;;;;;508945;28;1451;-68
2023/01/02 00:53:05;;;;;;;7.43;2.30;;;;;;;;;;509076;28;1491;-69
2023/01/02 00:53:21;;;;;;;8.23;2.33;;;;;;;;;;509483;28;1376;-68
2023/01/02 00:53:36;;;;;;;9.23;2.50;;;;;;;;;;506966;28;1367;-68
2023/01/02 00:53:52;;;;;;;7.93;2.40;;;;;;;;;;510286;28;1228;-68
2023/01/02 00:54:07;;;;;;;7.30;2.42;;;;;;;;;;509258;28;1462;-68
2023/01/02 00:54:22;;;;;;;7.30;2.40;;;;;;;;;;509893;28;1569;-68
2023/01/02 00:54:38;;;;;;;8.43;2.43;;;;;;;;;;509239;28;1672;-69
2023/01/02 00:54:53;;;;;;;9.77;2.50;;;;;;;;;;509401;28;1474;-68
2023/01/02 00:55:09;;;;;;;10.77;2.63;;;;;;;;;;508873;28;1380;-69
2023/01/02 00:55:24;;;;;;;8.53;2.50;;;;;;;;;;510040;28;1479;-69
2023/01/02 00:55:39;;;;;;;5.93;2.30;;;;;;;;;;509205;28;1431;-69
2023/01/02 00:55:54;;;;;;;7.03;2.50;;;;;;;;;;509432;28;1316;-70
2023/01/02 00:56:10;;;;;;;9.80;2.80;;;;;;;;;;507528;28;1497;-69
2023/01/02 00:56:25;;;;;;;10.40;2.80;;;;;;;;;;509636;28;1257;-69
2023/01/02 00:56:40;;;;;;;8.07;2.50;;;;;;;;;;506529;28;1424;-70
2023/01/02 00:56:55;;;;;;;7.83;2.50;;;;;;;;;;508985;28;1388;-71
2023/01/02 00:57:11;;;;;;;9.37;2.50;;;;;;;;;;508415;28;1200;-70
2023/01/02 00:57:26;;;;;;;10.02;2.45;;;;;;;;;;507220;28;1434;-68
2023/01/02 00:57:41;;;;;;;9.23;2.50;;;;;;;;;;508181;28;1272;-68
2023/01/02 00:57:56;;;;;;;7.77;2.43;;;;;;;;;;508049;28;1746;-69
2023/01/02 00:58:12;;;;;;;7.97;2.50;;;;;;;;;;509825;28;1313;-68
2023/01/02 00:58:27;;;;;;;10.15;2.50;;;;;;;;;;509464;28;1467;-69
2023/01/02 00:58:43;;;;;;;11.33;2.40;;;;;;;;;;506314;28;1141;-68
2023/01/02 00:58:58;;;;;;;10.77;2.47;;;;;;;;;;509480;28;1713;-71
2023/01/02 00:59:13;;;;;;;8.23;2.40;;;;;;;;;;509117;28;1300;-68
2023/01/02 00:59:29;;;;;;;7.90;2.50;;;;;;;;;;508945;28;1775;-69
2023/01/02 00:59:44;;;;;;;8.82;2.58;;;;;;;;;;508160;28;1346;-69
2023/01/02 00:59:59;;;;;;;9.47;2.70;;;;;;;;;;505556;29;1521;-69
2023/01/02 01:00:15;;;;;;;9.83;2.73;;;;;;;;;;507355;29;1349;-68
2023/01/02 01:00:30;;;;;;;8.70;2.50;;;;;;;;;;506243;29;1261;-68
2023/01/02 01:00:45;;;;;;;9.03;2.40;;;;;;;;;;507448;29;1417;-69
2023/01/02 01:01:01;;;;;;;8.63;2.47;;;;;;;;;;506760;29;1647;-69
2023/01/02 01:01:16;;;;;;;8.98;2.67;;;;;;;;;;508067;28;1370;-69
2023/01/02 01:01:31;;;;;;;11.47;2.90;;;;;;;;;;508461;28;1076;-70
2023/01/02 01:01:46;;;;;;;10.93;2.80;;;;;;;;;;509265;28;1374;-69
2023/01/02 01:02:02;;;;;;;9.67;2.57;;;;;;;;;;510919;28;1387;-68
2023/01/02 01:02:17;;;;;;;9.55;2.30;;;;;;;;;;510330;28;1332;-68
2023/01/02 01:02:32;;;;;;;8.90;2.30;;;;;;;;;;509813;28;1169;-69
2023/01/02 01:02:47;;;;;;;9.03;2.60;;;;;;;;;;509602;28;2042;-69
2023/01/02 01:03:03;;;;;;;7.77;2.50;;;;;;;;;;509599;28;1686;-68
2023/01/02 01:03:18;;;;;;;7.07;2.60;;;;;;;;;;510734;28;1442;-68
2023/01/02 01:03:33;;;;;;;8.23;2.77;;;;;;;;;;511511;28;1367;-68
2023/01/02 01:03:49;;;;;;;7.63;2.60;;;;;;;;;;510736;28;1455;-69
2023/01/02 01:04:04;;;;;;;8.07;2.40;;;;;;;;;;510087;28;1381;-69
2023/01/02 01:04:19;;;;;;;9.30;2.40;;;;;;;;;;511340;28;2098;-71
2023/01/02 01:04:35;;;;;;;8.83;2.40;;;;;;;;;;511407;28;1430;-69
2023/01/02 01:04:50;;;;;;;7.90;2.60;;;;;;;;;;511310;28;1296;-68
2023/01/02 01:05:07;;;;;;;8.00;2.73;;;;;;;;;;509970;28;1210;-68
2023/01/02 01:05:23;;;;;;;9.38;2.70;;;;;;;;;;509039;28;1447;-69
2023/01/02 01:05:39;;;;;;;9.60;2.60;;;;;;;;;;508806;28;1364;-69
2023/01/02 01:05:54;;;;;;;8.95;2.38;;;;;;;;;;508395;28;1772;-68
2023/01/02 01:06:10;;;;;;;8.23;2.40;;;;;;;;;;506790;29;1358;-68
2023/01/02 01:06:26;;;;;;;8.35;2.72;;;;;;;;;;506265;29;1162;-70
2023/01/02 01:06:41;;;;;;;8.20;2.65;;;;;;;;;;507435;28;1291;-69
2023/01/02 01:06:56;;;;;;;8.57;2.33;;;;;;;;;;509421;28;1338;-70
2023/01/02 01:07:11;;;;;;;8.60;2.40;;;;;;;;;;510661;28;1291;-69
2023/01/02 01:07:28;;;;;;;8.90;2.50;;;;;;;;;;511555;28;3242;-69
2023/01/02 01:07:43;;;;;;;9.93;2.60;;;;;;;;;;512917;28;1300;-68
2023/01/02 01:07:58;;;;;;;10.10;2.60;;;;;;;;;;512715;28;1433;-68
2023/01/02 01:08:13;;;;;;;9.30;2.40;;;;;;;;;;512198;28;1402;-69
2023/01/02 01:08:29;;;;;;;8.40;2.20;;;;;;;;;;511690;28;1108;-70
2023/01/02 01:08:44;;;;;;;8.75;2.30;;;;;;;;;;513053;28;1407;-68
2023/01/02 01:08:59;;;;;;;8.97;2.50;;;;;;;;;;512676;28;1656;-70
2023/01/02 01:09:15;;;;;;;9.07;2.47;;;;;;;;;;510106;28;1176;-68
2023/01/02 01:09:30;;;;;;;8.25;2.38;;;;;;;;;;510963;28;1371;-69
2023/01/02 01:09:45;;;;;;;8.47;2.40;;;;;;;;;;510082;28;1676;-68
2023/01/02 01:10:00;;;;;;;10.23;2.40;;;;;;;;;;510292;28;1408;-69
2023/01/02 01:10:16;;;;;;;10.27;2.30;;;;;;;;;;508565;28;1183;-69
2023/01/02 01:10:31;;;;;;;9.40;2.50;;;;;;;;;;508814;28;1653;-68
2023/01/02 01:10:47;;;;;;;9.53;2.53;;;;;;;;;;509312;28;1093;-69
2023/01/02 01:11:12;;;;;;;9.55;2.45;;;;;;;;;;509015;28;1373;-70
2023/01/02 01:11:27;;;;;;;7.75;2.50;;;;;;;;;;511997;28;1293;-68
2023/01/02 01:11:43;;;;;;;7.23;2.40;;;;;;;;;;513023;28;1374;-68
2023/01/02 01:11:58;;;;;;;7.93;2.28;;;;;;;;;;510953;28;1458;-69
2023/01/02 01:12:13;;;;;;;8.90;2.50;;;;;;;;;;510084;28;1902;-68
2023/01/02 01:12:29;;;;;;;8.87;2.57;;;;;;;;;;511283;28;1284;-68
2023/01/02 01:12:44;;;;;;;8.95;2.45;;;;;;;;;;510191;28;1476;-68
2023/01/02 01:13:00;;;;;;;11.40;2.60;;;;;;;;;;510712;28;1341;-68
2023/01/02 01:13:15;;;;;;;9.68;2.53;;;;;;;;;;511180;28;1435;-68
2023/01/02 01:13:30;;;;;;;7.90;2.53;;;;;;;;;;509299;28;1459;-69
2023/01/02 01:13:46;;;;;;;9.07;2.60;;;;;;;;;;509370;28;1645;-68
2023/01/02 01:14:02;;;;;;;8.93;2.50;;;;;;;;;;512678;28;1618;-69
2023/01/02 01:14:17;;;;;;;8.15;2.40;;;;;;;;;;510600;28;1272;-68
2023/01/02 01:14:32;;;;;;;8.00;2.40;;;;;;;;;;511130;28;1404;-68
2023/01/02 01:14:48;;;;;;;8.23;2.40;;;;;;;;;;512273;28;1452;-69
2023/01/02 01:15:04;;;;;;;7.85;2.30;;;;;;;;;;513169;28;1329;-68
2023/01/02 01:15:20;;;;;;;7.55;2.28;;;;;;;;;;512523;28;1519;-68
2023/01/02 01:15:35;;;;;;;7.93;2.30;;;;;;;;;;512657;28;1119;-68
2023/01/02 01:15:50;;;;;;;7.13;2.30;;;;;;;;;;512784;28;1224;-68
2023/01/02 01:16:15;;;;;;;8.73;2.40;;;;;;;;;;511608;28;1276;-68
2023/01/02 01:16:30;;;;;;;8.07;2.40;;;;;;;;;;510699;28;1464;-69
2023/01/02 01:16:45;;;;;;;8.93;2.40;;;;;;;;;;510854;28;1127;-72
2023/01/02 01:17:01;;;;;;;10.23;2.50;;;;;;;;;;511807;28;1281;-68
2023/01/02 01:17:16;;;;;;;9.80;2.60;;;;;;;;;;513508;28;1402;-68
2023/01/02 01:17:31;;;;;;;8.67;2.37;;;;;;;;;;512850;28;1310;-68
2023/01/02 01:17:47;;;;;;;7.50;2.20;;;;;;;;;;512191;28;1404;-68
2023/01/02 01:18:02;;;;;;;8.55;2.47;;;;;;;;;;513807;28;1236;-70
2023/01/02 01:18:17;;;;;;;9.73;2.50;;;;;;;;;;512782;28;1309;-69
2023/01/02 01:18:33;;;;;;;8.83;2.40;;;;;;;;;;510907;28;1280;-68
2023/01/02 01:18:48;;;;;;;9.43;2.60;;;;;;;;;;511593;28;1139;-69
2023/01/02 01:19:04;;;;;;;11.50;2.77;;;;;;;;;;509755;28;1269;-70
2023/01/02 01:19:19;;;;;;;10.95;2.63;;;;;;;;;;511395;28;1245;-69
2023/01/02 01:19:35;;;;;;;11.03;2.60;;;;;;;;;;511495;28;1351;-70
2023/01/02 01:19:50;;;;;;;9.02;2.42;;;;;;;;;;513447;28;1147;-69
2023/01/02 01:20:06;;;;;;;7.67;2.43;;;;;;;;;;512725;28;1259;-69
2023/01/02 01:20:21;;;;;;;7.82;2.55;;;;;;;;;;512608;28;1216;-68
2023/01/02 01:20:38;;;;;;;10.10;2.67;;;;;;;;;;514610;28;1036;-68
2023/01/02 01:20:53;;;;;;;10.95;2.65;;;;;;;;;;515501;28;1162;-69
2023/01/02 01:21:11;;;;;;;8.30;2.47;;;;;;;;;;514171;28;974;-69
2023/01/02 01:21:26;;;;;;;8.90;2.60;;;;;;;;;;512218;28;1283;-67
2023/01/02 01:21:41;;;;;;;8.27;2.33;;;;;;;;;;509997;28;1170;-69
2023/01/02 01:21:57;;;;;;;9.70;2.47;;;;;;;;;;511833;28;1296;-69
2023/01/02 01:22:12;;;;;;;9.90;2.60;;;;;;;;;;513546;28;1303;-72
2023/01/02 01:22:27;;;;;;;7.60;2.50;;;;;;;;;;511265;28;1186;-69
2023/01/02 01:22:43;;;;;;;9.07;2.50;;;;;;;;;;511430;28;1235;-69
2023/01/02 01:22:58;;;;;;;9.65;2.30;;;;;;;;;;510090;28;1436;-68
2023/01/02 01:23:13;;;;;;;10.27;2.40;;;;;;;;;;511253;28;1325;-69
2023/01/02 01:23:28;;;;;;;11.20;2.60;;;;;;;;;;512092;28;1189;-68
2023/01/02 01:23:48;;;;;;;11.10;2.40;;;;;;;;;;511406;28;1215;-69
2023/01/02 01:24:03;;;;;;;10.02;2.33;;;;;;;;;;510651;28;1178;-67
2023/01/02 01:24:18;;;;;;;8.40;2.30;;;;;;;;;;509923;28;1269;-69
2023/01/02 01:24:34;;;;;;;7.77;2.40;;;;;;;;;;509418;28;1143;-69
2023/01/02 01:24:49;;;;;;;8.73;2.63;;;;;;;;;;511509;28;1298;-68
2023/01/02 01:25:05;;;;;;;10.63;2.70;;;;;;;;;;510493;28;1182;-68
2023/01/02 01:25:20;;;;;;;12.60;2.60;;;;;;;;;;510995;28;1214;-69
2023/01/02 01:25:35;;;;;;;12.40;2.60;;;;;;;;;;512182;28;1067;-69
2023/01/02 01:25:51;;;;;;;10.43;2.57;;;;;;;;;;513252;28;1158;-69
2023/01/02 01:26:08;;;;;;;8.50;2.50;;;;;;;;;;512701;28;1322;-68
2023/01/02 01:26:24;;;;;;;8.43;2.50;;;;;;;;;;513475;28;1625;-68
2023/01/02 01:26:39;;;;;;;8.93;2.38;;;;;;;;;;512535;28;1180;-68
2023/01/02 01:26:54;;;;;;;9.37;2.40;;;;;;;;;;510523;28;1182;-69
2023/01/02 01:27:10;;;;;;;8.23;2.50;;;;;;;;;;509793;28;1314;-69
2023/01/02 01:27:25;;;;;;;9.43;2.40;;;;;;;;;;507961;28;1234;-69
2023/01/02 01:27:40;;;;;;;10.13;2.50;;;;;;;;;;508772;28;1404;-70
2023/01/02 01:27:55;;;;;;;9.63;2.60;;;;;;;;;;511805;28;1119;-69
2023/01/02 01:28:11;;;;;;;9.27;2.40;;;;;;;;;;510349;28;1107;-69
2023/01/02 01:28:26;;;;;;;9.15;2.38;;;;;;;;;;506682;29;1556;-69
2023/01/02 01:28:41;;;;;;;10.00;2.50;;;;;;;;;;506079;29;1239;-67
2023/01/02 01:28:57;;;;;;;10.07;2.43;;;;;;;;;;508266;29;1177;-68
2023/01/02 01:29:12;;;;;;;9.55;2.40;;;;;;;;;;505820;29;1345;-68
2023/01/02 01:29:27;;;;;;;8.13;2.30;;;;;;;;;;507279;29;1188;-68
2023/01/02 01:29:42;;;;;;;7.20;2.30;;;;;;;;;;508707;28;1247;-68
2023/01/02 01:29:58;;;;;;;7.60;2.33;;;;;;;;;;507175;29;1131;-69
2023/01/02 01:30:13;;;;;;;8.13;2.43;;;;;;;;;;506515;28;1452;-68
2023/01/02 01:30:28;;;;;;;10.80;2.60;;;;;;;;;;510670;28;1142;-68
2023/01/02 01:30:43;;;;;;;12.00;2.50;;;;;;;;;;509685;28;1162;-68
2023/01/02 01:31:02;;;;;;;9.50;2.33;;;;;;;;;;509445;28;1214;-68
2023/01/02 01:31:18;;;;;;;10.55;2.50;;;;;;;;;;508938;28;1140;-68
2023/01/02 01:31:33;;;;;;;9.00;2.45;;;;;;;;;;509734;28;1156;-70
2023/01/02 01:31:48;;;;;;;7.33;2.40;;;;;;;;;;508970;28;1193;-69
2023/01/02 01:32:04;;;;;;;8.07;2.53;;;;;;;;;;509420;28;2015;-69
2023/01/02 01:32:19;;;;;;;10.05;2.78;;;;;;;;;;508098;28;1037;-68
2023/01/02 01:32:34;;;;;;;10.60;2.70;;;;;;;;;;510265;28;1179;-69
2023/01/02 01:32:49;;;;;;;12.67;2.87;;;;;;;;;;510679;28;1316;-69
2023/01/02 01:33:05;;;;;;;12.57;3.00;;;;;;;;;;511336;28;1191;-68
2023/01/02 01:33:20;;;;;;;8.87;2.53;;;;;;;;;;512861;28;1260;-70
2023/01/02 01:33:37;;;;;;;10.10;2.40;;;;;;;;;;509457;28;1175;-70
2023/01/02 01:33:53;;;;;;;10.23;2.60;;;;;;;;;;512162;28;1214;-70
2023/01/02 01:34:11;;;;;;;7.43;2.45;;;;;;;;;;512062;28;1032;-68
2023/01/02 01:34:26;;;;;;;8.50;2.30;;;;;;;;;;509609;28;1093;-68
2023/01/02 01:34:42;;;;;;;9.63;2.43;;;;;;;;;;511683;28;1031;-68
2023/01/02 01:34:57;;;;;;;8.60;2.53;;;;;;;;;;511549;28;1459;-69
2023/01/02 01:35:13;;;;;;;7.53;2.53;;;;;;;;;;511862;28;1329;-69
2023/01/02 01:35:28;;;;;;;9.10;2.38;;;;;;;;;;508564;28;1327;-69
2023/01/02 01:35:43;;;;;;;9.00;2.30;;;;;;;;;;508852;28;1094;-69
2023/01/02 01:36:07;;;;;;;6.77;2.20;;;;;;;;;;508973;28;1289;-69